Time;durP1;ratioP1;P1;durP2;ratioP2;P2;SDS_P1;SDS_P2;PMS_P1;PMS_P2;Temp;Humidity;BMP_temperature;BMP_pressure;BME280_temperature;BME280_humidity;BME280_pressure;Samples;Min_cycle;Max_cycle;Signal;HPM_P1;HPM_P2
2022/03/01 00:00:42;;;;;;;15.37;5.33;;;-0.40;93.70;;;;;;5052187;28;20205;-77
2022/03/01 00:03:08;;;;;;;11.50;5.30;;;-0.40;93.70;;;;;;5051935;28;20288;-76
2022/03/01 00:05:34;;;;;;;15.43;5.53;;;-0.40;93.70;;;;;;5051953;28;20495;-75
2022/03/01 00:07:59;;;;;;;8.27;4.30;;;-0.40;93.90;;;;;;5051874;28;20190;-76
2022/03/01 00:10:25;;;;;;;8.90;4.73;;;-0.40;93.90;;;;;;5051991;28;20479;-76
2022/03/01 00:12:51;;;;;;;13.07;5.30;;;-0.50;94.00;;;;;;5054995;28;20228;-77
2022/03/01 00:15:16;;;;;;;10.80;5.40;;;-0.50;94.10;;;;;;5073706;28;20182;-76
2022/03/01 00:17:42;;;;;;;15.60;5.33;;;-0.50;93.90;;;;;;5055757;28;20229;-76
2022/03/01 00:20:08;;;;;;;12.07;5.13;;;-0.50;93.80;;;;;;5055416;28;20175;-79
2022/03/01 00:22:34;;;;;;;10.83;5.87;;;-0.50;93.80;;;;;;5055308;28;20287;-74
2022/03/01 00:25:01;;;;;;;16.10;5.90;;;-0.50;93.70;;;;;;5055155;28;20855;-75
2022/03/01 00:27:26;;;;;;;12.43;5.43;;;-0.50;93.50;;;;;;5055263;28;20215;-74
2022/03/01 00:29:52;;;;;;;10.17;5.20;;;-0.50;93.50;;;;;;5073167;28;20414;-76
2022/03/01 00:32:17;;;;;;;12.90;5.07;;;-0.50;93.50;;;;;;5054972;28;20206;-75
2022/03/01 00:34:43;;;;;;;10.63;5.03;;;-0.50;93.60;;;;;;5055209;28;20183;-75
2022/03/01 00:37:09;;;;;;;10.40;4.97;;;-0.50;93.60;;;;;;5054975;28;20637;-75
2022/03/01 00:39:34;;;;;;;15.50;5.80;;;-0.50;93.70;;;;;;5072984;28;20194;-75
2022/03/01 00:42:00;;;;;;;12.30;4.93;;;-0.50;93.80;;;;;;5054683;28;20179;-77
2022/03/01 00:44:26;;;;;;;14.70;6.20;;;-0.50;93.90;;;;;;5054887;28;20694;-77
2022/03/01 00:46:51;;;;;;;15.03;5.30;;;-0.50;93.90;;;;;;5054980;28;20199;-76
2022/03/01 00:49:17;;;;;;;10.70;5.10;;;-0.50;93.90;;;;;;5072772;28;20172;-75
2022/03/01 00:51:43;;;;;;;17.17;6.00;;;-0.50;93.80;;;;;;5073061;28;20336;-75
2022/03/01 00:54:09;;;;;;;11.87;6.40;;;-0.50;93.70;;;;;;5054769;28;20429;-76
2022/03/01 00:56:34;;;;;;;9.47;5.10;;;-0.60;93.60;;;;;;5054981;28;20186;-76
2022/03/01 00:59:00;;;;;;;12.80;4.80;;;-0.60;93.90;;;;;;5054821;28;20229;-75
2022/03/01 01:01:25;;;;;;;13.57;6.57;;;-0.70;93.90;;;;;;5054531;28;20185;-75
2022/03/01 01:03:52;;;;;;;13.73;6.07;;;-0.70;94.00;;;;;;5054487;28;20449;-76
2022/03/01 01:06:17;;;;;;;12.80;5.67;;;-0.80;94.10;;;;;;5072591;28;20203;-74
2022/03/01 01:08:43;;;;;;;11.43;5.63;;;-0.80;94.00;;;;;;5054353;28;20996;-76
2022/03/01 01:11:08;;;;;;;14.37;5.87;;;-0.90;94.10;;;;;;5051550;28;20175;-78
2022/03/01 01:13:34;;;;;;;14.10;6.00;;;-0.80;94.20;;;;;;5052595;28;20231;-76
2022/03/01 01:16:00;;;;;;;15.03;5.60;;;-0.90;94.30;;;;;;5050987;28;20270;-76
2022/03/01 01:18:26;;;;;;;15.03;5.60;;;-0.90;94.30;;;;;;5051367;28;20186;-76
2022/03/01 01:20:52;;;;;;;16.27;5.80;;;-1.00;94.30;;;;;;5051190;28;20414;-77
2022/03/01 01:23:18;;;;;;;9.77;5.60;;;-1.00;94.50;;;;;;5050652;28;20200;-76
2022/03/01 01:25:44;;;;;;;12.30;6.00;;;-1.00;94.40;;;;;;5050785;28;20905;-76
2022/03/01 01:28:09;;;;;;;11.27;5.73;;;-1.00;94.50;;;;;;5050869;28;20498;-76
2022/03/01 01:30:35;;;;;;;14.10;5.60;;;-1.00;94.50;;;;;;5051883;28;20210;-75
2022/03/01 01:33:02;;;;;;;15.50;5.90;;;-1.00;94.50;;;;;;5064050;28;20246;-76
2022/03/01 01:35:29;;;;;;;10.47;5.83;;;-1.00;94.40;;;;;;5053753;28;20433;-75
2022/03/01 01:37:55;;;;;;;12.27;6.07;;;-1.10;94.40;;;;;;5054127;28;20508;-75
2022/03/01 01:40:24;;;;;;;17.30;6.50;;;-1.10;94.50;;;;;;5053940;28;20804;-76
2022/03/01 01:42:51;;;;;;;14.07;6.37;;;-1.00;94.40;;;;;;5053882;28;20951;-76
2022/03/01 01:45:18;;;;;;;10.67;5.03;;;-1.00;94.40;;;;;;5072010;28;20410;-75
2022/03/01 01:47:44;;;;;;;14.23;5.70;;;-1.00;94.40;;;;;;5071829;28;20405;-76
2022/03/01 01:50:10;;;;;;;11.77;6.47;;;-1.10;94.40;;;;;;5071869;28;20752;-76
2022/03/01 01:52:36;;;;;;;10.17;5.03;;;-1.10;94.40;;;;;;5071276;28;21077;-76
2022/03/01 01:55:03;;;;;;;13.53;6.03;;;-1.10;94.70;;;;;;5053665;28;20401;-76
2022/03/01 01:57:28;;;;;;;17.73;6.33;;;-1.10;94.70;;;;;;5053463;28;20179;-76
2022/03/01 01:59:55;;;;;;;12.90;5.13;;;-1.10;94.50;;;;;;5053268;28;20420;-76
2022/03/01 02:02:24;;;;;;;11.80;5.40;;;-1.10;94.60;;;;;;5053445;28;20203;-76
2022/03/01 02:04:50;;;;;;;10.57;5.90;;;-1.10;94.70;;;;;;5053305;28;20559;-76
2022/03/01 02:07:17;;;;;;;12.67;6.20;;;-1.20;94.80;;;;;;5053292;28;20534;-76
2022/03/01 02:09:43;;;;;;;13.50;5.70;;;-1.20;94.90;;;;;;5070861;28;20409;-75
2022/03/01 02:12:09;;;;;;;16.33;6.10;;;-1.20;94.90;;;;;;5052932;28;20491;-77
2022/03/01 02:14:37;;;;;;;14.73;6.00;;;-1.20;95.00;;;;;;5053493;28;20433;-76
2022/03/01 02:17:05;;;;;;;11.57;5.43;;;-1.20;95.00;;;;;;5071067;28;20449;-75
2022/03/01 02:19:31;;;;;;;12.27;5.73;;;-1.20;95.10;;;;;;5053238;28;20413;-76
2022/03/01 02:21:57;;;;;;;15.37;5.67;;;-1.20;95.10;;;;;;5052880;28;20444;-75
2022/03/01 02:24:26;;;;;;;10.50;5.90;;;-1.20;95.20;;;;;;5054084;28;20424;-76
2022/03/01 02:27:00;;;;;;;15.13;5.80;;;-1.20;95.10;;;;;;5052615;28;20531;-77
2022/03/01 02:29:26;;;;;;;7.20;5.20;;;-1.20;95.20;;;;;;5053055;28;20914;-76
2022/03/01 02:31:55;;;;;;;13.00;5.60;;;-1.20;95.20;;;;;;5052448;28;20418;-77
2022/03/01 02:34:20;;;;;;;14.53;5.97;;;-1.30;95.10;;;;;;5070558;28;20421;-77
2022/03/01 02:36:46;;;;;;;19.87;6.40;;;-1.30;95.20;;;;;;5070335;28;20406;-74
2022/03/01 02:39:13;;;;;;;11.70;5.60;;;-1.30;95.30;;;;;;5052607;28;20195;-75
2022/03/01 02:41:44;;;;;;;7.90;4.70;;;-1.30;95.40;;;;;;5052524;28;20294;-75
2022/03/01 02:44:10;;;;;;;15.50;5.80;;;-1.30;95.50;;;;;;5052896;28;20442;-75
2022/03/01 02:46:37;;;;;;;14.97;6.53;;;-1.30;95.50;;;;;;5052430;28;20794;-77
2022/03/01 02:49:04;;;;;;;11.70;5.37;;;-1.20;95.60;;;;;;5052998;28;20418;-76
2022/03/01 02:51:29;;;;;;;9.57;5.90;;;-1.20;95.60;;;;;;5053051;28;20422;-76
2022/03/01 02:53:55;;;;;;;14.20;5.87;;;-1.20;95.60;;;;;;5053257;28;20438;-77
2022/03/01 02:56:21;;;;;;;10.20;5.10;;;-1.20;95.50;;;;;;5052620;28;20284;-76
2022/03/01 02:58:47;;;;;;;14.13;5.93;;;-1.30;95.60;;;;;;5052850;28;20755;-76
2022/03/01 03:01:13;;;;;;;20.50;7.40;;;-1.30;95.60;;;;;;5052561;28;20453;-75
2022/03/01 03:03:38;;;;;;;11.67;5.77;;;-1.30;95.70;;;;;;5052739;28;20576;-77
2022/03/01 03:06:04;;;;;;;12.80;6.30;;;-1.30;95.90;;;;;;5052520;28;20245;-75
2022/03/01 03:08:31;;;;;;;14.30;6.60;;;-1.30;95.90;;;;;;5052737;28;20606;-74
2022/03/01 03:10:57;;;;;;;15.90;6.43;;;-1.30;96.00;;;;;;5052269;28;21011;-73
2022/03/01 03:13:23;;;;;;;12.77;5.33;;;-1.40;96.00;;;;;;5052276;28;20989;-75
2022/03/01 03:15:49;;;;;;;14.50;6.67;;;-1.40;96.10;;;;;;5052429;28;20512;-74
2022/03/01 03:18:15;;;;;;;12.37;5.07;;;-1.40;96.20;;;;;;5052247;28;20866;-74
2022/03/01 03:20:40;;;;;;;10.57;5.63;;;-1.40;96.20;;;;;;5070075;28;20541;-76
2022/03/01 03:23:06;;;;;;;13.13;6.40;;;-1.50;96.10;;;;;;5052449;28;20926;-76
2022/03/01 03:25:32;;;;;;;10.43;5.97;;;-1.50;96.30;;;;;;5052028;28;20198;-76
2022/03/01 03:27:58;;;;;;;11.50;6.73;;;-1.60;96.50;;;;;;5052384;28;20183;-77
2022/03/01 03:30:23;;;;;;;10.00;5.73;;;-1.60;96.50;;;;;;5070820;28;20673;-75
2022/03/01 03:32:49;;;;;;;9.70;5.33;;;-1.70;96.50;;;;;;5053670;28;20459;-74
2022/03/01 03:35:14;;;;;;;10.03;5.13;;;-1.70;96.60;;;;;;5052591;28;20179;-75
2022/03/01 03:37:40;;;;;;;14.60;6.33;;;-1.80;96.70;;;;;;5070085;28;20178;-74
2022/03/01 03:40:06;;;;;;;12.83;6.30;;;-1.80;96.80;;;;;;5052305;28;20175;-75
2022/03/01 03:42:32;;;;;;;16.53;5.80;;;-1.90;97.10;;;;;;5052490;28;20566;-73
2022/03/01 03:44:57;;;;;;;14.00;5.70;;;-1.90;97.30;;;;;;5052442;28;20421;-74
2022/03/01 03:47:23;;;;;;;12.47;5.87;;;-1.90;97.30;;;;;;5055120;28;20206;-75
2022/03/01 03:49:49;;;;;;;11.17;5.57;;;-1.90;97.30;;;;;;5055844;28;20190;-75
2022/03/01 03:52:14;;;;;;;13.37;5.70;;;-1.90;97.30;;;;;;5055845;28;20202;-75
2022/03/01 03:54:40;;;;;;;15.73;5.90;;;-2.00;97.30;;;;;;5056165;28;20179;-75
2022/03/01 03:57:08;;;;;;;11.50;5.37;;;-2.00;97.30;;;;;;5056101;28;20175;-74
2022/03/01 03:59:35;;;;;;;10.47;6.00;;;-2.00;97.30;;;;;;5055904;28;20187;-75
2022/03/01 04:02:02;;;;;;;12.33;6.10;;;-2.00;97.30;;;;;;5055487;28;20417;-74
2022/03/01 04:04:28;;;;;;;13.17;5.73;;;-2.10;97.30;;;;;;5073607;28;20409;-74
2022/03/01 04:06:53;;;;;;;10.30;6.03;;;-2.00;97.30;;;;;;5055407;28;20472;-73
2022/03/01 04:09:19;;;;;;;11.60;5.60;;;-2.10;97.30;;;;;;5055658;28;20695;-73
2022/03/01 04:11:44;;;;;;;13.90;6.33;;;-2.00;97.30;;;;;;5073375;28;20233;-74
2022/03/01 04:14:10;;;;;;;12.33;5.30;;;-2.00;97.30;;;;;;5055688;28;20262;-75
2022/03/01 04:16:38;;;;;;;11.40;5.63;;;-2.00;97.30;;;;;;5056394;28;20186;-75
2022/03/01 04:19:04;;;;;;;10.77;5.23;;;-2.00;97.30;;;;;;5056092;28;20259;-74
2022/03/01 04:21:29;;;;;;;12.93;5.60;;;-2.00;97.30;;;;;;5055784;28;20512;-76
2022/03/01 04:23:55;;;;;;;17.20;5.97;;;-2.00;97.30;;;;;;5073393;28;20517;-75
2022/03/01 04:26:20;;;;;;;12.70;5.73;;;-2.00;97.30;;;;;;5055162;28;20207;-76
2022/03/01 04:28:46;;;;;;;10.70;5.63;;;-2.00;97.30;;;;;;5052077;28;20195;-76
2022/03/01 04:31:11;;;;;;;13.00;5.87;;;-2.00;97.30;;;;;;5052262;28;20830;-74
2022/03/01 04:33:37;;;;;;;8.70;5.23;;;-2.00;97.30;;;;;;5051868;28;20195;-73
2022/03/01 04:36:03;;;;;;;13.13;6.13;;;-2.00;97.30;;;;;;5052029;28;20180;-76
2022/03/01 04:38:30;;;;;;;12.53;6.10;;;-2.10;97.30;;;;;;5051833;28;20678;-74
2022/03/01 04:40:56;;;;;;;16.37;6.57;;;-2.10;97.30;;;;;;5052011;28;20233;-77
2022/03/01 04:43:22;;;;;;;17.57;6.40;;;-2.10;97.30;;;;;;5051658;28;20466;-74
2022/03/01 04:45:48;;;;;;;14.63;6.00;;;-2.10;97.30;;;;;;5052093;28;20493;-74
2022/03/01 04:48:14;;;;;;;11.37;5.53;;;-2.10;97.30;;;;;;5053021;28;20182;-76
2022/03/01 04:50:40;;;;;;;12.93;6.20;;;-2.10;97.30;;;;;;5051885;28;20416;-75
2022/03/01 04:53:05;;;;;;;14.23;6.10;;;-2.10;97.30;;;;;;5051521;28;21208;-73
2022/03/01 04:55:32;;;;;;;14.83;7.27;;;-2.20;97.30;;;;;;5051611;28;20172;-75
2022/03/01 04:57:57;;;;;;;21.00;8.13;;;-2.10;97.30;;;;;;5050827;28;20174;-75
2022/03/01 05:00:23;;;;;;;13.10;6.20;;;-2.10;97.30;;;;;;5052124;28;20489;-75
2022/03/01 05:02:48;;;;;;;12.67;5.80;;;-2.10;97.30;;;;;;5055312;28;20298;-75
2022/03/01 05:05:15;;;;;;;11.90;5.90;;;-2.10;97.30;;;;;;5073020;28;20722;-74
2022/03/01 05:07:42;;;;;;;10.80;5.87;;;-2.10;97.30;;;;;;5055602;28;20187;-75
2022/03/01 05:10:10;;;;;;;11.37;5.67;;;-2.10;97.30;;;;;;5072838;28;20393;-74
2022/03/01 05:12:48;;;;;;;12.10;6.10;;;-2.20;97.30;;;;;;5072464;28;20457;-75
2022/03/01 05:15:15;;;;;;;14.93;6.10;;;-2.20;97.30;;;;;;5054700;28;20780;-76
2022/03/01 05:17:41;;;;;;;11.73;5.90;;;-2.30;97.30;;;;;;5054118;28;20440;-75
2022/03/01 05:20:08;;;;;;;12.23;6.03;;;-2.30;97.30;;;;;;5054530;28;20521;-75
2022/03/01 05:22:34;;;;;;;17.07;6.37;;;-2.40;97.30;;;;;;5072414;28;20452;-74
2022/03/01 05:25:01;;;;;;;10.40;5.80;;;-2.40;97.30;;;;;;5054721;28;20432;-75
2022/03/01 05:27:28;;;;;;;16.27;6.67;;;-2.50;97.30;;;;;;5071824;28;20449;-74
2022/03/01 05:29:54;;;;;;;15.00;6.80;;;-2.50;97.30;;;;;;5067872;28;20827;-74
2022/03/01 05:32:20;;;;;;;14.17;6.77;;;-2.50;97.30;;;;;;5074377;28;20424;-76
2022/03/01 05:34:46;;;;;;;9.60;5.67;;;-2.50;97.30;;;;;;5067459;28;20641;-74
2022/03/01 05:37:12;;;;;;;21.30;7.00;;;-2.60;97.30;;;;;;5054075;28;20550;-74
2022/03/01 05:39:37;;;;;;;12.23;6.20;;;-2.60;97.30;;;;;;5054345;28;20210;-75
2022/03/01 05:42:03;;;;;;;13.63;6.53;;;-2.60;97.30;;;;;;5054142;28;20803;-74
2022/03/01 05:44:29;;;;;;;16.23;6.83;;;-2.60;97.30;;;;;;5054061;28;20175;-76
2022/03/01 05:46:55;;;;;;;14.50;6.83;;;-2.60;97.30;;;;;;5072168;28;20472;-74
2022/03/01 05:49:20;;;;;;;18.80;8.33;;;-2.60;97.30;;;;;;5071707;28;20633;-75
2022/03/01 05:51:46;;;;;;;18.10;7.30;;;-2.60;97.30;;;;;;5055756;28;20182;-74
2022/03/01 05:54:11;;;;;;;16.13;7.70;;;-2.60;97.30;;;;;;5050499;28;20205;-77
2022/03/01 05:56:37;;;;;;;17.33;7.50;;;-2.60;97.30;;;;;;5071056;28;20178;-75
2022/03/01 05:59:02;;;;;;;14.90;6.57;;;-2.50;97.30;;;;;;5068456;28;20254;-74
2022/03/01 06:01:28;;;;;;;17.13;5.90;;;-2.50;97.30;;;;;;5039388;28;20172;-76
2022/03/01 06:03:54;;;;;;;13.70;6.20;;;-2.50;97.30;;;;;;5033890;28;20204;-73
2022/03/01 06:06:19;;;;;;;12.83;5.80;;;-2.50;97.30;;;;;;5033649;28;20575;-74
2022/03/01 06:08:45;;;;;;;12.23;5.83;;;-2.50;97.30;;;;;;5051441;28;20540;-74
2022/03/01 06:11:11;;;;;;;15.13;5.67;;;-2.50;97.30;;;;;;5033441;28;20187;-74
2022/03/01 06:13:37;;;;;;;11.50;6.37;;;-2.60;97.30;;;;;;5040169;28;20230;-76
2022/03/01 06:16:04;;;;;;;19.40;7.70;;;-2.60;97.30;;;;;;5049998;28;20557;-74
2022/03/01 06:18:30;;;;;;;22.77;7.57;;;-2.60;97.30;;;;;;5049593;28;20426;-74
2022/03/01 06:20:56;;;;;;;16.53;6.57;;;-2.60;97.30;;;;;;5049768;28;20418;-73
2022/03/01 06:23:22;;;;;;;13.83;6.23;;;-2.60;97.30;;;;;;5050895;28;20523;-74
2022/03/01 06:25:48;;;;;;;15.77;5.47;;;-2.60;97.30;;;;;;5050832;28;20504;-74
2022/03/01 06:28:13;;;;;;;18.20;5.90;;;-2.60;97.30;;;;;;5051139;28;20892;-74
2022/03/01 06:30:39;;;;;;;16.13;6.60;;;-2.50;97.30;;;;;;5049452;28;20187;-76
2022/03/01 06:33:05;;;;;;;12.60;6.10;;;-2.50;97.30;;;;;;5044436;28;20242;-73
2022/03/01 06:35:31;;;;;;;17.53;6.40;;;-2.50;97.30;;;;;;5044476;28;20180;-74
2022/03/01 06:37:57;;;;;;;12.50;5.50;;;-2.40;97.30;;;;;;5048304;28;20433;-73
2022/03/01 06:40:23;;;;;;;13.07;5.83;;;-2.40;97.30;;;;;;5048283;28;20590;-74
2022/03/01 06:42:49;;;;;;;13.63;7.67;;;-2.30;97.30;;;;;;5040946;28;20447;-72
2022/03/01 06:45:16;;;;;;;14.60;7.07;;;-2.30;97.30;;;;;;5047251;28;20433;-72
2022/03/01 06:47:42;;;;;;;14.17;5.73;;;-2.30;97.30;;;;;;5052590;28;20199;-72
2022/03/01 06:50:08;;;;;;;14.20;6.63;;;-2.20;97.30;;;;;;5055597;28;20426;-72
2022/03/01 06:52:35;;;;;;;17.37;7.03;;;-2.20;97.30;;;;;;5050965;28;20442;-72
2022/03/01 06:55:02;;;;;;;19.77;6.10;;;-2.10;97.30;;;;;;5048535;28;20827;-73
2022/03/01 06:57:28;;;;;;;17.27;6.90;;;-2.00;97.30;;;;;;5061181;28;20936;-73
2022/03/01 06:59:54;;;;;;;17.53;7.47;;;-1.90;97.30;;;;;;5057740;28;20422;-73
2022/03/01 07:02:20;;;;;;;18.03;6.33;;;-1.90;97.30;;;;;;5054919;28;20295;-75
2022/03/01 07:04:46;;;;;;;10.33;5.23;;;-1.80;97.30;;;;;;5056427;28;20179;-72
2022/03/01 07:07:11;;;;;;;19.37;6.93;;;-1.70;97.30;;;;;;5056921;28;20454;-72
2022/03/01 07:09:37;;;;;;;15.67;6.00;;;-1.60;97.30;;;;;;5058374;28;20258;-73
2022/03/01 07:12:03;;;;;;;12.00;5.80;;;-1.50;97.30;;;;;;5062840;28;20172;-73
2022/03/01 07:14:28;;;;;;;15.17;6.30;;;-1.30;97.30;;;;;;5078598;28;20186;-73
2022/03/01 07:16:54;;;;;;;13.47;6.50;;;-1.20;97.30;;;;;;5056863;28;20624;-72
2022/03/01 07:19:19;;;;;;;13.70;5.80;;;-1.20;97.30;;;;;;5051368;28;20659;-74
2022/03/01 07:21:45;;;;;;;12.03;6.13;;;-1.00;97.30;;;;;;5069214;28;20767;-76
2022/03/01 07:24:10;;;;;;;13.77;5.50;;;-0.90;97.30;;;;;;5047602;28;20210;-73
2022/03/01 07:26:36;;;;;;;10.43;5.20;;;-0.80;97.00;;;;;;5069670;28;20202;-71
2022/03/01 07:29:02;;;;;;;11.93;5.73;;;-0.70;97.00;;;;;;5051811;28;20201;-72
2022/03/01 07:31:28;;;;;;;18.73;6.83;;;-0.60;96.90;;;;;;5048580;28;20443;-73
2022/03/01 07:33:54;;;;;;;13.27;5.60;;;-0.50;96.80;;;;;;5048503;28;21250;-73
2022/03/01 07:36:20;;;;;;;18.00;7.13;;;-0.40;96.20;;;;;;5050024;28;20509;-73
2022/03/01 07:38:45;;;;;;;11.57;5.80;;;-0.30;95.70;;;;;;5048816;28;20219;-73
2022/03/01 07:41:11;;;;;;;11.60;6.30;;;-0.20;95.30;;;;;;5048863;28;20650;-74
2022/03/01 07:43:36;;;;;;;11.37;5.43;;;-0.10;95.10;;;;;;5047229;28;20214;-73
2022/03/01 07:46:03;;;;;;;15.63;5.97;;;0.10;94.70;;;;;;5069724;28;20290;-74
2022/03/01 07:48:28;;;;;;;14.07;5.40;;;0.20;94.00;;;;;;5051813;28;20171;-75
2022/03/01 07:50:54;;;;;;;11.87;5.43;;;0.30;94.10;;;;;;5051763;28;20453;-73
2022/03/01 07:53:20;;;;;;;10.17;5.40;;;0.40;94.10;;;;;;5069703;28;20191;-74
2022/03/01 07:55:45;;;;;;;12.50;6.43;;;0.60;93.80;;;;;;5051820;28;20242;-74
2022/03/01 07:58:11;;;;;;;11.90;5.03;;;0.70;92.90;;;;;;5069864;28;20257;-77
2022/03/01 08:00:37;;;;;;;10.53;5.40;;;0.80;92.70;;;;;;5051752;28;20717;-74
2022/03/01 08:03:03;;;;;;;13.03;6.70;;;0.90;92.30;;;;;;5051540;28;20304;-75
2022/03/01 08:05:28;;;;;;;13.50;5.53;;;1.00;92.00;;;;;;5051691;28;20177;-74
2022/03/01 08:07:56;;;;;;;13.53;5.23;;;1.10;92.20;;;;;;5049975;28;20433;-75
2022/03/01 08:10:22;;;;;;;10.70;5.73;;;1.30;91.00;;;;;;5050867;28;20591;-75
2022/03/01 08:12:48;;;;;;;10.37;5.90;;;1.40;91.00;;;;;;5050839;28;20525;-75
2022/03/01 08:15:13;;;;;;;14.77;6.23;;;1.50;90.20;;;;;;5050508;28;20195;-76
2022/03/01 08:17:51;;;;;;;11.83;5.30;;;1.70;90.00;;;;;;5065405;28;20204;-75
2022/03/01 08:20:16;;;;;;;9.90;5.40;;;1.80;89.80;;;;;;5050495;28;20186;-75
2022/03/01 08:22:42;;;;;;;12.53;5.60;;;2.00;89.60;;;;;;5050997;28;20429;-75
2022/03/01 08:25:08;;;;;;;15.17;5.97;;;2.00;88.50;;;;;;5050762;28;20695;-75
2022/03/01 08:27:33;;;;;;;15.60;5.23;;;2.20;88.30;;;;;;5068696;28;20207;-75
2022/03/01 08:29:59;;;;;;;16.13;6.07;;;2.20;88.30;;;;;;5049371;28;20695;-75
2022/03/01 08:32:24;;;;;;;19.83;5.67;;;2.40;87.00;;;;;;5032158;28;20276;-74
2022/03/01 08:34:50;;;;;;;11.60;5.40;;;2.60;87.10;;;;;;5052929;28;20643;-75
2022/03/01 08:37:15;;;;;;;11.30;4.80;;;2.70;86.70;;;;;;5051409;28;20237;-76
2022/03/01 08:39:41;;;;;;;12.20;5.03;;;2.80;84.90;;;;;;5053029;28;20198;-75
2022/03/01 08:42:07;;;;;;;7.53;5.20;;;2.90;85.30;;;;;;5053178;28;20256;-76
2022/03/01 08:44:32;;;;;;;14.97;5.70;;;3.10;84.80;;;;;;5051566;28;20191;-75
2022/03/01 08:46:58;;;;;;;10.00;4.80;;;3.20;84.10;;;;;;5054644;28;20195;-75
2022/03/01 08:49:23;;;;;;;12.10;5.23;;;3.40;83.30;;;;;;5072882;28;20250;-76
2022/03/01 08:51:49;;;;;;;13.37;5.47;;;3.50;82.60;;;;;;5052037;28;20202;-76
2022/03/01 08:54:14;;;;;;;17.03;6.17;;;3.50;80.80;;;;;;5052301;28;20180;-76
2022/03/01 08:56:40;;;;;;;14.47;5.97;;;3.60;80.30;;;;;;5052096;28;20541;-76
2022/03/01 08:59:06;;;;;;;10.70;6.33;;;3.80;81.70;;;;;;5051949;28;20184;-76
2022/03/01 09:01:32;;;;;;;13.10;7.13;;;3.80;80.30;;;;;;5052404;28;20183;-76
2022/03/01 09:03:59;;;;;;;9.00;4.93;;;4.00;80.80;;;;;;5052424;28;20441;-76
2022/03/01 09:06:25;;;;;;;12.30;6.20;;;4.10;80.40;;;;;;5052495;28;20453;-76
2022/03/01 09:08:51;;;;;;;11.27;5.07;;;4.20;77.90;;;;;;5054048;28;20409;-76
2022/03/01 09:11:17;;;;;;;9.20;5.40;;;4.30;79.30;;;;;;5071452;28;20409;-76
2022/03/01 09:13:42;;;;;;;10.60;5.70;;;4.40;77.60;;;;;;5053260;28;20277;-76
2022/03/01 09:16:09;;;;;;;14.33;5.93;;;4.40;77.40;;;;;;5047941;28;20188;-76
2022/03/01 09:18:36;;;;;;;11.40;5.00;;;4.50;77.30;;;;;;5068127;28;20417;-76
2022/03/01 09:21:05;;;;;;;8.73;4.97;;;4.60;76.90;;;;;;5049475;28;20781;-75
2022/03/01 09:23:32;;;;;;;10.40;5.30;;;4.70;77.40;;;;;;5070715;28;20460;-76
2022/03/01 09:25:58;;;;;;;8.03;4.80;;;4.80;77.30;;;;;;5048903;28;20458;-76
2022/03/01 09:28:24;;;;;;;12.57;4.70;;;5.00;77.60;;;;;;5048409;28;20456;-76
2022/03/01 09:30:50;;;;;;;9.20;4.40;;;5.00;75.20;;;;;;5053252;28;20193;-76
2022/03/01 09:33:16;;;;;;;11.87;5.00;;;5.00;74.70;;;;;;5053245;28;20195;-77
2022/03/01 09:35:41;;;;;;;9.57;4.60;;;5.00;75.00;;;;;;5038669;28;20418;-76
2022/03/01 09:38:07;;;;;;;12.10;4.90;;;5.10;74.60;;;;;;5051193;28;20642;-76
2022/03/01 09:40:33;;;;;;;8.37;4.00;;;5.20;75.30;;;;;;5033235;28;20670;-76
2022/03/01 09:43:00;;;;;;;10.77;5.70;;;5.40;75.00;;;;;;5033142;28;20434;-76
2022/03/01 09:45:25;;;;;;;10.20;5.13;;;5.40;73.50;;;;;;5032696;28;20722;-77
2022/03/01 09:47:52;;;;;;;8.63;4.17;;;5.60;73.60;;;;;;5034167;28;20426;-76
2022/03/01 09:50:22;;;;;;;10.57;5.10;;;5.70;74.40;;;;;;5053240;28;20179;-76
2022/03/01 09:52:47;;;;;;;8.93;6.03;;;5.80;73.70;;;;;;5052610;28;20437;-76
2022/03/01 09:55:13;;;;;;;11.87;5.50;;;5.70;72.20;;;;;;5071002;28;20591;-77
2022/03/01 09:57:39;;;;;;;8.97;4.63;;;5.70;72.20;;;;;;5070771;28;20450;-76
2022/03/01 10:00:07;;;;;;;10.23;4.90;;;5.80;72.90;;;;;;5050137;28;20175;-76
2022/03/01 10:02:38;;;;;;;10.47;5.10;;;5.90;72.50;;;;;;5070677;28;20193;-76
2022/03/01 10:05:04;;;;;;;8.40;4.23;;;5.90;72.10;;;;;;5071094;28;20406;-77
2022/03/01 10:07:31;;;;;;;15.60;5.20;;;6.00;71.20;;;;;;5070319;28;20538;-76
2022/03/01 10:10:16;;;;;;;8.40;4.90;;;6.10;71.00;;;;;;5052685;28;20443;-77
2022/03/01 10:12:44;;;;;;;9.93;4.47;;;6.00;70.60;;;;;;5059237;28;20457;-77
2022/03/01 10:15:10;;;;;;;10.80;6.00;;;5.90;70.70;;;;;;5051911;28;20421;-77
2022/03/01 10:17:42;;;;;;;10.63;5.93;;;6.00;72.20;;;;;;5054123;28;20445;-77
2022/03/01 10:20:11;;;;;;;9.90;5.67;;;6.20;72.40;;;;;;5069673;28;20420;-77
2022/03/01 10:22:38;;;;;;;9.80;4.73;;;6.30;72.80;;;;;;5064696;28;21048;-77
2022/03/01 10:25:08;;;;;;;9.43;4.77;;;6.40;72.60;;;;;;5058388;28;20428;-76
2022/03/01 10:27:34;;;;;;;10.60;5.07;;;6.50;72.50;;;;;;5069850;28;20477;-76
2022/03/01 10:30:01;;;;;;;10.27;5.60;;;6.60;73.10;;;;;;5070150;28;20406;-76
2022/03/01 10:32:27;;;;;;;11.30;5.93;;;6.70;72.20;;;;;;5070241;28;20417;-77
2022/03/01 10:35:04;;;;;;;9.90;4.83;;;6.70;72.10;;;;;;5053138;28;20579;-76
2022/03/01 10:37:32;;;;;;;9.83;5.90;;;6.60;70.70;;;;;;5052860;28;20254;-76
2022/03/01 10:40:22;;;;;;;8.60;4.53;;;6.60;70.60;;;;;;5070587;28;20504;-75
2022/03/01 10:43:09;;;;;;;16.77;4.63;;;6.70;71.20;;;;;;5052392;28;20445;-77
2022/03/01 10:45:46;;;;;;;11.33;4.20;;;6.80;70.80;;;;;;5070742;28;20402;-77
2022/03/01 10:48:30;;;;;;;9.07;4.93;;;7.00;71.10;;;;;;5070585;28;20389;-76
2022/03/01 10:50:58;;;;;;;11.70;4.50;;;7.00;70.40;;;;;;5052523;28;20413;-78
2022/03/01 10:53:35;;;;;;;9.10;4.40;;;7.00;70.10;;;;;;5070069;28;20437;-76
2022/03/01 10:56:04;;;;;;;11.53;5.47;;;7.20;69.00;;;;;;5069602;28;20488;-76
2022/03/01 10:58:30;;;;;;;8.70;5.10;;;7.30;70.40;;;;;;5070224;28;20413;-76
2022/03/01 11:00:56;;;;;;;13.47;6.30;;;7.40;70.50;;;;;;5050902;28;20462;-77
2022/03/01 11:03:23;;;;;;;8.87;4.80;;;7.50;71.30;;;;;;5048674;28;20815;-77
2022/03/01 11:05:49;;;;;;;8.30;5.13;;;7.60;71.30;;;;;;5050185;28;20410;-77
2022/03/01 11:08:16;;;;;;;9.50;5.40;;;7.60;70.80;;;;;;5049098;28;20854;-77
2022/03/01 11:10:43;;;;;;;9.33;5.47;;;7.60;69.80;;;;;;5048930;28;20908;-77
2022/03/01 11:13:09;;;;;;;8.40;5.00;;;7.60;69.70;;;;;;5049427;28;20466;-78
2022/03/01 11:15:35;;;;;;;10.90;5.13;;;7.50;70.90;;;;;;5048970;28;20419;-79
2022/03/01 11:18:18;;;;;;;14.77;5.60;;;7.50;70.30;;;;;;5032911;28;20398;-78
2022/03/01 11:20:47;;;;;;;9.53;4.70;;;7.50;70.20;;;;;;5050677;28;20183;-77
2022/03/01 11:23:15;;;;;;;10.70;4.60;;;7.50;69.70;;;;;;5050565;28;20953;-78
2022/03/01 11:25:46;;;;;;;11.47;5.20;;;7.60;69.50;;;;;;5049434;28;20418;-77
2022/03/01 11:28:12;;;;;;;12.23;5.30;;;7.70;69.80;;;;;;5049587;28;20497;-78
2022/03/01 11:30:39;;;;;;;20.13;6.57;;;7.80;69.60;;;;;;5049518;28;20437;-78
2022/03/01 11:33:05;;;;;;;12.40;4.97;;;7.80;68.30;;;;;;5038616;28;20437;-77
2022/03/01 11:35:34;;;;;;;10.83;4.63;;;7.70;68.20;;;;;;5091226;28;20396;-78
2022/03/01 11:38:08;;;;;;;8.57;5.40;;;7.80;69.00;;;;;;5073128;28;20408;-80
2022/03/01 11:40:37;;;;;;;10.97;5.33;;;8.00;71.20;;;;;;5073262;28;20410;-78
2022/03/01 11:43:16;;;;;;;7.30;5.10;;;8.30;70.00;;;;;;5057020;28;20437;-77
2022/03/01 11:45:53;;;;;;;7.93;4.97;;;8.40;70.50;;;;;;5054263;28;20476;-78
2022/03/01 11:48:21;;;;;;;9.13;5.33;;;8.30;70.00;;;;;;5052015;28;20412;-78
2022/03/01 11:50:49;;;;;;;10.93;5.33;;;8.30;69.60;;;;;;5052182;28;20418;-78
2022/03/01 11:53:17;;;;;;;13.83;5.40;;;8.30;69.50;;;;;;5051914;28;20443;-78
2022/03/01 11:55:44;;;;;;;12.47;5.80;;;8.50;70.20;;;;;;5051820;28;20422;-79
2022/03/01 11:58:11;;;;;;;9.83;5.27;;;8.60;70.60;;;;;;5069645;28;20441;-78
2022/03/01 12:00:40;;;;;;;11.23;5.33;;;8.80;70.40;;;;;;5052730;28;20772;-79
2022/03/01 12:03:18;;;;;;;9.57;5.40;;;8.90;68.60;;;;;;5051554;28;20454;-78
2022/03/01 12:05:47;;;;;;;12.90;6.13;;;9.20;70.20;;;;;;5052054;28;20415;-75
2022/03/01 12:08:15;;;;;;;10.40;5.70;;;9.20;69.60;;;;;;5054728;28;20432;-75
2022/03/01 12:10:54;;;;;;;14.00;6.60;;;9.30;70.00;;;;;;5056203;28;20770;-76
2022/03/01 12:13:21;;;;;;;9.00;5.00;;;9.40;68.50;;;;;;5056404;28;20456;-79
2022/03/01 12:15:56;;;;;;;9.27;5.43;;;9.50;68.80;;;;;;5057857;28;20445;-79
2022/03/01 12:18:28;;;;;;;11.77;5.60;;;9.40;68.60;;;;;;5058195;28;20409;-80
2022/03/01 12:20:53;;;;;;;12.10;6.03;;;9.60;68.20;;;;;;5060622;28;20457;-79
2022/03/01 12:23:32;;;;;;;9.40;4.93;;;9.60;67.00;;;;;;5058922;28;20436;-74
2022/03/01 12:26:00;;;;;;;17.57;6.00;;;9.50;67.70;;;;;;5074820;28;20194;-75
2022/03/01 12:28:29;;;;;;;11.17;5.30;;;9.80;68.60;;;;;;5056908;28;20409;-76
2022/03/01 12:30:58;;;;;;;11.00;6.17;;;10.10;68.90;;;;;;5055662;28;20410;-80
2022/03/01 12:33:23;;;;;;;11.40;5.70;;;10.30;68.20;;;;;;5047100;28;20429;-77
2022/03/01 12:36:03;;;;;;;9.80;5.57;;;10.60;67.30;;;;;;5054237;28;20953;-80
2022/03/01 12:38:32;;;;;;;11.60;5.37;;;10.70;65.90;;;;;;5068744;28;20231;-77
2022/03/01 12:41:10;;;;;;;9.90;5.53;;;10.60;65.70;;;;;;5066132;28;20420;-78